Time;durP1;ratioP1;P1;durP2;ratioP2;P2;SDS_P1;SDS_P2;PMS_P1;PMS_P2;Temp;Humidity;BMP_temperature;BMP_pressure;BME280_temperature;BME280_humidity;BME280_pressure;Samples;Min_cycle;Max_cycle;Signal;HPM_P1;HPM_P2
2022/10/29 00:01:05;;;;;;;19.63;7.68;;;;;;;13.41;100.00;102021.38;5094820;28;20048;-52
2022/10/29 00:03:36;;;;;;;17.50;6.50;;;;;;;13.38;100.00;102016.28;5094667;28;20138;-54
2022/10/29 00:06:07;;;;;;;14.65;6.70;;;;;;;13.34;100.00;102012.09;5094554;28;20127;-52
2022/10/29 00:08:37;;;;;;;19.50;6.78;;;;;;;13.29;100.00;102014.16;5094527;28;20048;-53
2022/10/29 00:11:07;;;;;;;14.40;6.45;;;;;;;13.24;100.00;102022.34;5094523;28;20491;-53
2022/10/29 00:13:37;;;;;;;15.88;6.90;;;;;;;13.24;100.00;102019.72;5094570;28;20040;-53
2022/10/29 00:16:07;;;;;;;15.55;5.60;;;;;;;13.23;100.00;102020.63;5094406;28;20052;-52
2022/10/29 00:18:35;;;;;;;16.90;6.45;;;;;;;13.19;100.00;102005.91;5094307;28;20055;-53
2022/10/29 00:21:05;;;;;;;18.98;6.90;;;;;;;13.16;100.00;102001.66;5093394;28;20040;-57
2022/10/29 00:23:33;;;;;;;17.25;6.15;;;;;;;13.17;100.00;102011.28;5092691;28;20059;-57
2022/10/29 00:26:02;;;;;;;15.32;6.20;;;;;;;13.16;100.00;101998.16;5091061;28;20046;-58
2022/10/29 00:28:30;;;;;;;15.43;7.10;;;;;;;13.10;100.00;101987.94;5090531;28;20035;-57
2022/10/29 00:31:04;;;;;;;18.00;7.28;;;;;;;13.11;100.00;101993.13;5094133;28;20055;-57
2022/10/29 00:33:33;;;;;;;15.98;6.43;;;;;;;13.04;100.00;101991.78;5094140;28;20059;-58
2022/10/29 00:36:03;;;;;;;19.33;7.50;;;;;;;13.02;100.00;101994.53;5094477;28;20040;-57
2022/10/29 00:38:32;;;;;;;21.60;6.78;;;;;;;13.01;100.00;101990.19;5092622;28;20507;-57
2022/10/29 00:41:00;;;;;;;18.23;6.13;;;;;;;12.99;100.00;101994.72;5093940;28;20370;-57
2022/10/29 00:43:29;;;;;;;19.15;6.28;;;;;;;12.97;100.00;101993.09;5093917;28;20109;-58
2022/10/29 00:46:00;;;;;;;19.35;6.93;;;;;;;12.97;100.00;101995.72;5091473;28;20040;-57
2022/10/29 00:48:33;;;;;;;16.60;6.22;;;;;;;12.97;100.00;102006.28;5090318;28;20048;-57
2022/10/29 00:51:03;;;;;;;15.65;6.43;;;;;;;12.91;100.00;101996.94;5090777;28;20090;-57
2022/10/29 00:53:36;;;;;;;18.00;6.32;;;;;;;12.88;100.00;102005.00;5089421;28;20047;-57
2022/10/29 00:56:05;;;;;;;14.90;6.30;;;;;;;12.84;100.00;102004.34;5090767;28;20542;-57
2022/10/29 00:58:35;;;;;;;15.23;5.70;;;;;;;12.81;100.00;102011.56;5089847;28;20423;-57
2022/10/29 01:01:03;;;;;;;15.15;6.63;;;;;;;12.76;100.00;102018.91;5091112;28;20131;-51
2022/10/29 01:03:33;;;;;;;14.88;6.25;;;;;;;12.75;100.00;102012.78;5092139;28;20048;-53
2022/10/29 01:06:03;;;;;;;15.23;6.80;;;;;;;12.71;100.00;102013.03;5090602;28;20040;-53
2022/10/29 01:08:31;;;;;;;15.88;6.30;;;;;;;12.68;100.00;102017.53;5092313;28;20040;-51
2022/10/29 01:11:08;;;;;;;16.92;6.43;;;;;;;12.67;100.00;102004.44;5093237;28;20164;-53
2022/10/29 01:13:55;;;;;;;19.38;6.28;;;;;;;12.67;100.00;101996.53;5092758;28;20048;-52
2022/10/29 01:16:34;;;;;;;20.00;6.32;;;;;;;12.68;100.00;101990.31;5093117;28;20032;-53
2022/10/29 01:19:14;;;;;;;13.88;6.05;;;;;;;12.68;100.00;101985.88;5093226;28;20036;-54
2022/10/29 01:21:45;;;;;;;14.30;5.72;;;;;;;12.60;100.00;101985.44;5093532;28;20070;-51
2022/10/29 01:24:49;;;;;;;15.90;6.40;;;;;;;12.60;100.00;101988.09;5093372;28;20050;-56
2022/10/29 01:27:51;;;;;;;16.35;5.90;;;;;;;12.51;100.00;101978.88;5093292;28;20043;-58
2022/10/29 01:30:30;;;;;;;17.15;6.13;;;;;;;12.50;100.00;101986.88;5093159;28;20170;-57
2022/10/29 01:33:10;;;;;;;13.73;5.90;;;;;;;12.43;100.00;101982.88;5093174;28;20518;-57
2022/10/29 01:35:47;;;;;;;15.30;5.97;;;;;;;12.41;100.00;101985.63;5090373;28;20048;-57
2022/10/29 01:38:24;;;;;;;14.13;6.18;;;;;;;12.34;100.00;101985.09;5088033;28;20051;-57
2022/10/29 01:40:59;;;;;;;16.40;5.82;;;;;;;12.31;100.00;101981.75;5089872;28;20051;-57
2022/10/29 01:43:34;;;;;;;15.32;5.38;;;;;;;12.26;100.00;101974.13;5092801;28;20131;-57
2022/10/29 01:46:08;;;;;;;16.35;6.22;;;;;;;12.17;100.00;101966.69;5091197;28;20040;-57
2022/10/29 01:48:43;;;;;;;19.58;6.65;;;;;;;12.16;100.00;101972.91;5088677;28;20044;-56
2022/10/29 01:51:17;;;;;;;12.43;5.78;;;;;;;12.11;100.00;101974.94;5089404;28;20079;-57
2022/10/29 01:53:46;;;;;;;13.00;5.88;;;;;;;12.14;100.00;101964.22;5090781;28;20044;-57
2022/10/29 01:56:17;;;;;;;14.80;6.28;;;;;;;12.07;100.00;101970.78;5090406;28;20044;-56
2022/10/29 01:58:48;;;;;;;15.95;5.55;;;;;;;12.06;100.00;101955.88;5089558;28;20601;-56
2022/10/29 02:01:32;;;;;;;12.05;5.30;;;;;;;12.03;100.00;101949.00;5092223;28;20044;-57
2022/10/29 02:04:15;;;;;;;11.88;5.70;;;;;;;12.02;100.00;101946.44;5091170;28;20077;-57
2022/10/29 02:06:50;;;;;;;;;;;;;;;11.98;100.00;101941.34;5090117;28;20052;-57
2022/10/29 02:09:27;;;;;;;11.48;5.32;;;;;;;11.99;100.00;101937.75;5088041;28;19924;-57
2022/10/29 02:11:59;;;;;;;18.25;5.90;;;;;;;11.98;100.00;101933.44;5089621;28;20048;-57
2022/10/29 02:14:32;;;;;;;13.38;5.97;;;;;;;11.91;100.00;101939.91;5091126;28;20051;-56
2022/10/29 02:17:01;;;;;;;15.70;6.47;;;;;;;11.93;100.00;101930.16;5089373;28;20450;-58
2022/10/29 02:19:31;;;;;;;14.82;6.07;;;;;;;11.88;100.00;101924.25;5088316;28;20050;-57
2022/10/29 02:21:59;;;;;;;15.07;6.47;;;;;;;11.79;100.00;101922.97;5092091;28;20044;-57
2022/10/29 02:24:27;;;;;;;15.20;5.72;;;;;;;11.74;100.00;101929.41;5087529;28;20048;-57
2022/10/29 02:26:55;;;;;;;15.90;5.97;;;;;;;11.76;100.00;101928.41;5088971;28;20050;-57
2022/10/29 02:29:24;;;;;;;12.70;5.35;;;;;;;11.72;100.00;101928.66;5092415;28;20460;-56
2022/10/29 02:31:52;;;;;;;10.55;5.65;;;;;;;11.75;100.00;101923.22;5092307;28;20058;-57
2022/10/29 02:34:20;;;;;;;15.60;6.00;;;;;;;11.72;100.00;101921.59;5092191;28;20040;-57
2022/10/29 02:36:49;;;;;;;13.85;6.10;;;;;;;11.62;100.00;101921.22;5091729;28;20498;-57
2022/10/29 02:39:17;;;;;;;14.45;7.05;;;;;;;11.62;100.00;101921.22;5090550;28;20554;-57
2022/10/29 02:41:45;;;;;;;14.70;6.05;;;;;;;11.62;100.00;101918.59;5092265;28;20494;-57
2022/10/29 02:44:13;;;;;;;11.73;5.30;;;;;;;11.64;100.00;101926.41;5090560;28;20091;-56
2022/10/29 02:46:41;;;;;;;11.45;4.70;;;;;;;11.62;100.00;101937.03;5092034;28;20048;-56
2022/10/29 02:49:09;;;;;;;12.05;5.40;;;;;;;11.65;100.00;101930.75;5092632;28;20036;-56
2022/10/29 02:51:37;;;;;;;10.18;4.88;;;;;;;11.61;100.00;101924.78;5093675;28;20050;-55
2022/10/29 02:54:07;;;;;;;13.48;4.50;;;;;;;11.59;100.00;101926.66;5096029;28;20043;-56
2022/10/29 02:56:35;;;;;;;8.73;4.70;;;;;;;11.59;100.00;101921.38;5095577;28;20405;-57
2022/10/29 02:59:03;;;;;;;9.65;4.32;;;;;;;11.58;100.00;101924.94;5093393;28;20555;-56
2022/10/29 03:01:36;;;;;;;12.27;4.68;;;;;;;11.58;100.00;101914.41;5092571;28;20040;-55
2022/10/29 03:04:04;;;;;;;10.93;4.82;;;;;;;11.52;100.00;101921.78;5092141;28;20517;-56
2022/10/29 03:06:32;;;;;;;11.27;5.20;;;;;;;11.48;100.00;101914.03;5092422;28;20383;-53
2022/10/29 03:09:00;;;;;;;10.32;4.50;;;;;;;11.49;100.00;101909.63;5090706;28;20052;-51
2022/10/29 03:11:30;;;;;;;12.40;4.80;;;;;;;11.46;100.00;101900.09;5094603;28;20524;-53
2022/10/29 03:13:58;;;;;;;13.70;4.80;;;;;;;11.47;100.00;101903.59;5095740;28;20089;-53
2022/10/29 03:16:26;;;;;;;9.70;4.95;;;;;;;11.45;100.00;101902.81;5095768;28;20044;-51
2022/10/29 03:18:54;;;;;;;10.43;4.72;;;;;;;11.47;100.00;101887.78;5094693;28;20408;-51
2022/10/29 03:21:22;;;;;;;14.50;5.68;;;;;;;11.46;100.00;101892.19;5092645;28;20097;-52
2022/10/29 03:23:50;;;;;;;13.55;6.00;;;;;;;11.44;100.00;101880.91;5094279;28;20051;-51
2022/10/29 03:26:18;;;;;;;18.02;6.32;;;;;;;11.38;100.00;101888.25;5095623;28;20368;-50
2022/10/29 03:28:48;;;;;;;18.25;5.43;;;;;;;11.39;100.00;101889.97;5095415;28;20051;-54
2022/10/29 03:31:16;;;;;;;20.33;6.80;;;;;;;11.39;100.00;101890.81;5094904;28;20055;-56
2022/10/29 03:33:44;;;;;;;24.92;7.38;;;;;;;11.39;100.00;101901.34;5091360;28;20055;-56
2022/10/29 03:36:12;;;;;;;24.92;7.90;;;;;;;11.39;100.00;101897.88;5091825;28;20054;-56
2022/10/29 03:38:42;;;;;;;25.60;9.07;;;;;;;11.32;100.00;101898.19;5091102;28;20367;-56
2022/10/29 03:41:18;;;;;;;23.52;8.52;;;;;;;11.36;100.00;101898.00;5090369;28;20502;-52
2022/10/29 03:43:48;;;;;;;22.23;8.05;;;;;;;11.35;100.00;101891.91;5091592;28;20047;-51
2022/10/29 03:46:16;;;;;;;24.85;9.60;;;;;;;11.40;100.00;101889.03;5091776;28;20106;-53
2022/10/29 03:48:44;;;;;;;24.02;9.60;;;;;;;11.29;100.00;101879.91;5091427;28;20059;-49
2022/10/29 03:51:12;;;;;;;26.05;9.88;;;;;;;11.28;100.00;101886.09;5093776;28;20503;-51
2022/10/29 03:53:40;;;;;;;25.33;10.18;;;;;;;11.28;100.00;101888.72;5094769;28;20062;-52
2022/10/29 03:56:10;;;;;;;19.77;9.95;;;;;;;11.31;100.00;101899.09;5093781;28;20048;-52
2022/10/29 03:58:38;;;;;;;21.17;9.13;;;;;;;11.32;100.00;101900.81;5093271;28;20052;-52
2022/10/29 04:01:09;;;;;;;22.63;8.70;;;;;;;11.30;100.00;101900.06;5091574;28;20079;-50
2022/10/29 04:03:41;;;;;;;17.48;8.43;;;;;;;11.29;100.00;101900.13;5092782;28;20044;-52
2022/10/29 04:06:11;;;;;;;16.83;7.77;;;;;;;11.25;100.00;101899.44;5093987;28;20560;-52
2022/10/29 04:08:39;;;;;;;20.25;7.72;;;;;;;11.22;100.00;101896.97;5094637;28;20046;-51
2022/10/29 04:11:08;;;;;;;20.00;7.38;;;;;;;11.26;100.00;101902.91;5094590;28;20127;-52
2022/10/29 04:13:37;;;;;;;17.13;6.78;;;;;;;11.25;100.00;101909.97;5092341;28;20059;-52
2022/10/29 04:16:07;;;;;;;18.85;7.95;;;;;;;11.26;100.00;101913.44;5091631;28;20105;-51
2022/10/29 04:18:35;;;;;;;19.35;7.45;;;;;;;11.25;100.00;101904.69;5093745;28;20036;-49
2022/10/29 04:21:04;;;;;;;20.02;7.00;;;;;;;11.28;100.00;101895.78;5094489;28;20130;-50
2022/10/29 04:23:52;;;;;;;16.58;6.97;;;;;;;11.29;100.00;101894.88;5094421;28;20483;-52
2022/10/29 04:26:42;;;;;;;14.95;6.15;;;;;;;11.35;100.00;101891.91;5094363;28;20113;-51
2022/10/29 04:29:30;;;;;;;15.90;6.32;;;;;;;11.32;100.00;101889.44;5094122;28;20072;-52
2022/10/29 04:32:00;;;;;;;15.57;6.43;;;;;;;11.35;100.00;101881.38;5094271;28;20048;-51
2022/10/29 04:34:28;;;;;;;16.00;6.93;;;;;;;11.33;100.00;101883.25;5094097;28;20429;-52
2022/10/29 04:36:56;;;;;;;16.42;6.75;;;;;;;11.35;100.00;101873.47;5094355;28;20491;-50
2022/10/29 04:39:24;;;;;;;19.27;7.75;;;;;;;11.34;100.00;101871.75;5094042;28;20558;-51
2022/10/29 04:41:52;;;;;;;21.20;6.88;;;;;;;11.35;100.00;101877.91;5094028;28;20056;-48
2022/10/29 04:44:20;;;;;;;13.95;7.13;;;;;;;11.32;100.00;101877.09;5094070;28;20139;-52
2022/10/29 04:46:48;;;;;;;18.50;8.07;;;;;;;11.31;100.00;101864.03;5094199;28;20105;-54
2022/10/29 04:49:20;;;;;;;13.68;6.95;;;;;;;11.33;100.00;101865.66;5091126;28;20063;-52
2022/10/29 04:51:48;;;;;;;12.35;6.68;;;;;;;11.30;100.00;101852.66;5091111;28;20051;-52
2022/10/29 04:54:19;;;;;;;14.35;7.28;;;;;;;11.28;100.00;101854.50;5093693;28;20051;-53
2022/10/29 04:56:47;;;;;;;14.73;7.35;;;;;;;11.25;100.00;101861.72;5093366;28;20060;-51
2022/10/29 04:59:19;;;;;;;13.80;6.95;;;;;;;11.26;100.00;101856.38;5092966;28;20731;-50
2022/10/29 05:01:47;;;;;;;16.95;7.32;;;;;;;11.32;100.00;101866.56;5092996;28;20032;-52
2022/10/29 05:04:15;;;;;;;14.95;7.72;;;;;;;11.31;100.00;101859.59;5093572;28;20055;-49
2022/10/29 05:06:44;;;;;;;16.25;7.60;;;;;;;11.31;100.00;101864.03;5093490;28;20047;-53
2022/10/29 05:09:12;;;;;;;13.50;6.90;;;;;;;11.31;100.00;101858.75;5093094;28;20067;-52
2022/10/29 05:11:40;;;;;;;15.38;7.75;;;;;;;11.31;100.00;101851.69;5093464;28;20071;-53
2022/10/29 05:14:08;;;;;;;15.07;7.95;;;;;;;11.26;100.00;101848.47;5091768;28;20122;-52
2022/10/29 05:16:36;;;;;;;15.65;7.70;;;;;;;11.26;100.00;101845.84;5090122;28;20543;-51
2022/10/29 05:19:05;;;;;;;19.02;8.05;;;;;;;11.27;100.00;101855.41;5092720;28;20051;-51
2022/10/29 05:21:33;;;;;;;16.90;7.80;;;;;;;11.28;100.00;101848.38;5093071;28;20044;-50
2022/10/29 05:24:03;;;;;;;15.15;7.57;;;;;;;11.23;100.00;101840.72;5091386;28;20453;-51
2022/10/29 05:26:32;;;;;;;18.20;8.82;;;;;;;11.25;100.00;101838.03;5089923;28;20082;-48
2022/10/29 05:29:00;;;;;;;15.30;8.05;;;;;;;11.25;100.00;101838.03;5092028;28;20102;-51
2022/10/29 05:31:28;;;;;;;12.88;8.10;;;;;;;11.21;100.00;101837.31;5093120;28;20043;-50
2022/10/29 05:33:56;;;;;;;22.08;10.68;;;;;;;11.23;100.00;101837.25;5092207;28;20490;-52
2022/10/29 05:36:24;;;;;;;18.83;10.18;;;;;;;11.24;100.00;101845.06;5093127;28;20056;-51
2022/10/29 05:38:52;;;;;;;20.80;10.20;;;;;;;11.21;100.00;101841.72;5092983;28;20118;-49
2022/10/29 05:41:22;;;;;;;20.45;10.60;;;;;;;11.23;100.00;101840.72;5092829;28;20102;-52
2022/10/29 05:43:50;;;;;;;25.15;14.05;;;;;;;11.25;100.00;101848.56;5093158;28;20538;-51
2022/10/29 05:46:18;;;;;;;20.13;11.73;;;;;;;11.23;100.00;101843.34;5093039;28;20052;-52
2022/10/29 05:48:46;;;;;;;21.35;11.07;;;;;;;11.22;100.00;101838.16;5091254;28;20050;-48
2022/10/29 05:51:14;;;;;;;22.02;10.93;;;;;;;11.20;100.00;101830.34;5089781;28;20457;-50
2022/10/29 05:53:42;;;;;;;18.63;10.73;;;;;;;11.27;100.00;101831.72;5088807;28;20052;-52
2022/10/29 05:56:10;;;;;;;22.20;10.43;;;;;;;11.28;100.00;101835.22;5089322;28;20054;-50
2022/10/29 05:58:40;;;;;;;16.98;8.88;;;;;;;11.23;100.00;101835.44;5091678;28;20139;-51
2022/10/29 06:01:09;;;;;;;15.65;9.07;;;;;;;11.25;100.00;101825.69;5091436;28;20048;-52
2022/10/29 06:03:38;;;;;;;15.38;8.57;;;;;;;11.24;100.00;101829.25;5092408;28;20387;-52
2022/10/29 06:06:07;;;;;;;16.25;8.73;;;;;;;11.23;100.00;101829.34;5092675;28;20039;-50
2022/10/29 06:08:35;;;;;;;12.60;8.38;;;;;;;11.23;100.00;101824.91;5092480;28;20410;-52
2022/10/29 06:11:04;;;;;;;12.88;8.05;;;;;;;11.24;100.00;101826.63;5092245;28;20486;-51
2022/10/29 06:13:32;;;;;;;13.05;7.93;;;;;;;11.24;100.00;101817.88;5091937;28;20101;-53
2022/10/29 06:16:02;;;;;;;14.63;7.80;;;;;;;11.28;100.00;101822.06;5091619;28;20123;-54
2022/10/29 06:18:30;;;;;;;12.40;7.30;;;;;;;11.28;100.00;101815.00;5088148;28;20856;-56
2022/10/29 06:20:59;;;;;;;11.18;6.80;;;;;;;11.26;100.00;101811.59;5088548;28;20143;-56
2022/10/29 06:23:27;;;;;;;13.52;8.38;;;;;;;11.25;100.00;101809.91;5091307;28;20044;-55
2022/10/29 06:25:59;;;;;;;13.88;7.95;;;;;;;11.24;100.00;101815.25;5091847;28;20056;-54
2022/10/29 06:28:27;;;;;;;15.82;8.75;;;;;;;11.25;100.00;101824.84;5091937;28;20051;-55
2022/10/29 06:31:03;;;;;;;15.07;9.20;;;;;;;11.29;100.00;101814.06;5090770;28;20048;-55
2022/10/29 06:33:31;;;;;;;12.63;8.02;;;;;;;11.33;100.00;101812.13;5088194;28;20052;-55
2022/10/29 06:35:59;;;;;;;13.77;8.63;;;;;;;11.35;100.00;101802.34;5089617;28;20101;-54
2022/10/29 06:38:27;;;;;;;14.52;9.32;;;;;;;11.36;100.00;101803.19;5088474;28;20127;-55
2022/10/29 06:40:55;;;;;;;14.85;8.27;;;;;;;11.37;100.00;101800.50;5091553;28;20040;-56
2022/10/29 06:43:24;;;;;;;15.43;9.02;;;;;;;11.41;100.00;101802.03;5088092;28;20051;-51
2022/10/29 06:45:52;;;;;;;12.80;8.45;;;;;;;11.46;100.00;101812.31;5090722;28;20036;-51
2022/10/29 06:48:22;;;;;;;14.50;8.55;;;;;;;11.49;100.00;101814.78;5092255;28;20598;-51
2022/10/29 06:50:50;;;;;;;12.50;8.55;;;;;;;11.51;100.00;101812.94;5088041;28;20068;-53
2022/10/29 06:53:18;;;;;;;14.43;9.23;;;;;;;11.53;100.00;101818.13;5089567;28;20502;-53
2022/10/29 06:55:46;;;;;;;17.10;8.90;;;;;;;11.56;100.00;101831.97;5092002;28;20070;-52
2022/10/29 06:58:16;;;;;;;14.70;9.25;;;;;;;11.58;100.00;101826.63;5091864;28;20067;-52
2022/10/29 07:00:45;;;;;;;14.35;10.48;;;;;;;11.63;100.00;101830.72;5091651;28;20560;-51
2022/10/29 07:03:14;;;;;;;15.77;10.82;;;;;;;11.65;100.00;101828.84;5091814;28;20044;-49
2022/10/29 07:05:44;;;;;;;16.67;11.80;;;;;;;11.67;100.00;101824.34;5091989;28;20425;-51
2022/10/29 07:08:12;;;;;;;15.27;10.43;;;;;;;11.70;100.00;101823.31;5089442;28;20048;-54
2022/10/29 07:10:41;;;;;;;19.38;11.55;;;;;;;11.77;100.00;101831.75;5087818;28;20075;-55
2022/10/29 07:13:09;;;;;;;17.90;11.15;;;;;;;11.80;100.00;101834.22;5090837;28;20039;-55
2022/10/29 07:15:37;;;;;;;16.85;11.70;;;;;;;11.82;100.00;101824.44;5091630;28;20143;-56
2022/10/29 07:18:07;;;;;;;21.27;11.63;;;;;;;11.88;100.00;101815.34;5088862;28;20044;-54
2022/10/29 07:20:37;;;;;;;19.05;11.25;;;;;;;11.92;100.00;101814.25;5088778;28;20501;-55
2022/10/29 07:23:07;;;;;;;21.38;12.88;;;;;;;12.04;100.00;101816.22;5091411;28;20052;-56
2022/10/29 07:25:38;;;;;;;24.60;14.10;;;;;;;12.10;100.00;101817.66;5091319;28;20152;-56
2022/10/29 07:28:08;;;;;;;21.15;14.18;;;;;;;12.12;100.00;101816.66;5088484;28;20506;-56
2022/10/29 07:30:36;;;;;;;23.23;15.55;;;;;;;12.29;100.00;101820.97;5089004;28;20051;-56
2022/10/29 07:33:04;;;;;;;25.65;15.90;;;;;;;12.32;100.00;101820.81;5091578;28;20071;-56
2022/10/29 07:35:33;;;;;;;25.27;16.20;;;;;;;12.46;100.00;101827.06;5093838;28;20048;-56
2022/10/29 07:38:03;;;;;;;24.85;16.92;;;;;;;12.64;100.00;101831.28;5092484;28;20052;-56
2022/10/29 07:40:40;;;;;;;29.02;15.43;;;;;;;12.75;100.00;101832.41;5090641;28;20130;-57
2022/10/29 07:43:09;;;;;;;28.30;16.85;;;;;;;12.93;100.00;101839.28;5091860;28;20100;-56
2022/10/29 07:45:40;;;;;;;25.92;15.63;;;;;;;13.25;100.00;101828.59;5092063;28;20066;-56
2022/10/29 07:48:09;;;;;;;26.15;16.00;;;;;;;13.44;100.00;101817.75;5091528;28;20503;-54
2022/10/29 07:50:38;;;;;;;26.70;16.02;;;;;;;13.73;100.00;101807.16;5093338;28;20567;-56
2022/10/29 07:53:08;;;;;;;22.05;14.68;;;;;;;13.94;100.00;101798.81;5095152;28;20048;-56
2022/10/29 07:55:37;;;;;;;24.27;16.30;;;;;;;13.84;100.00;101802.03;5090216;28;20044;-56
2022/10/29 07:58:07;;;;;;;25.58;15.60;;;;;;;13.79;100.00;101811.22;5092169;28;20040;-56
2022/10/29 08:00:38;;;;;;;24.33;15.50;;;;;;;13.81;100.00;101811.94;5093189;28;20056;-56
2022/10/29 08:03:10;;;;;;;26.90;16.08;;;;;;;13.82;100.00;101813.66;5091101;28;20048;-56
2022/10/29 08:05:38;;;;;;;25.95;16.02;;;;;;;13.87;100.00;101811.56;5092987;28;20044;-55
2022/10/29 08:08:10;;;;;;;29.05;16.48;;;;;;;13.85;100.00;101810.81;5094636;28;20138;-55
2022/10/29 08:10:40;;;;;;;26.08;16.30;;;;;;;13.94;100.00;101812.03;5093221;28;20054;-56
2022/10/29 08:13:08;;;;;;;28.58;17.10;;;;;;;14.05;100.00;101811.34;5091233;28;20040;-56
2022/10/29 08:15:36;;;;;;;22.92;14.95;;;;;;;14.12;100.00;101820.56;5091316;28;20378;-55
2022/10/29 08:18:11;;;;;;;26.13;15.93;;;;;;;14.18;100.00;101813.09;5090944;28;20055;-56
2022/10/29 08:20:39;;;;;;;30.25;17.05;;;;;;;14.17;100.00;101821.13;5092816;28;20052;-57
2022/10/29 08:23:09;;;;;;;27.02;15.50;;;;;;;14.26;100.00;101820.53;5091438;28;20038;-55
2022/10/29 08:25:41;;;;;;;28.55;17.58;;;;;;;14.56;100.00;101821.25;5089944;28;20113;-56
2022/10/29 08:28:11;;;;;;;28.02;17.35;;;;;;;14.57;100.00;101813.19;5090927;28;20083;-56
2022/10/29 08:30:40;;;;;;;26.00;16.83;;;;;;;14.62;100.00;101807.59;5091196;28;20044;-56
2022/10/29 08:33:09;;;;;;;26.42;17.10;;;;;;;14.77;100.00;101809.25;5090931;28;20109;-56
2022/10/29 08:35:37;;;;;;;29.75;18.10;;;;;;;14.85;100.00;101803.44;5090307;28;20338;-57
2022/10/29 08:38:05;;;;;;;25.60;16.92;;;;;;;14.95;100.00;101790.41;5092719;28;20113;-56
2022/10/29 08:40:45;;;;;;;25.52;17.95;;;;;;;15.12;100.00;101775.97;5091613;28;20063;-56
2022/10/29 08:43:34;;;;;;;27.98;16.80;;;;;;;15.24;100.00;101774.28;5089927;28;20047;-56
2022/10/29 08:46:02;;;;;;;27.00;17.00;;;;;;;15.25;100.00;101768.88;5092053;28;20052;-57
2022/10/29 08:48:39;;;;;;;27.30;16.70;;;;;;;15.32;100.00;101770.13;5094070;28;20138;-57
2022/10/29 08:51:14;;;;;;;29.17;16.75;;;;;;;15.59;100.00;101763.81;5091951;28;20056;-57
2022/10/29 08:53:46;;;;;;;27.88;17.60;;;;;;;15.60;100.00;101772.59;5088590;28;20063;-57
2022/10/29 08:56:35;;;;;;;28.52;17.67;;;;;;;15.61;100.00;101769.88;5089528;28;20245;-57
2022/10/29 08:59:06;;;;;;;23.30;16.13;;;;;;;15.60;100.00;101776.13;5090495;28;20052;-57
2022/10/29 09:01:35;;;;;;;;;;;;;;;15.59;100.00;101776.25;5090893;28;20044;-57
2022/10/29 09:04:16;;;;;;;24.13;14.90;;;;;;;15.67;100.00;101782.69;5092239;28;20459;-57
2022/10/29 09:06:53;;;;;;;24.25;15.45;;;;;;;15.67;100.00;101777.38;5090738;28;20462;-58
2022/10/29 09:09:31;;;;;;;24.70;15.30;;;;;;;15.74;100.00;101771.63;5089092;28;20062;-57
2022/10/29 09:15:22;;;;;;;25.48;15.93;;;;;;;15.98;100.00;101792.88;5127547;27;21426;-57
2022/10/29 09:18:05;;;;;;;29.58;16.70;;;;;;;16.11;100.00;101793.69;5129195;27;20424;-57
2022/10/29 09:20:45;;;;;;;24.08;15.30;;;;;;;16.27;100.00;101793.41;5130719;27;20047;-57
2022/10/29 09:23:25;;;;;;;25.17;15.48;;;;;;;16.32;100.00;101793.91;5130288;27;20035;-57
2022/10/29 09:25:59;;;;;;;18.85;13.48;;;;;;;16.35;100.00;101787.53;5130208;27;20047;-57
2022/10/29 09:28:37;;;;;;;23.67;14.90;;;;;;;16.42;100.00;101778.13;5130575;27;20075;-57
2022/10/29 09:31:19;;;;;;;26.08;15.52;;;;;;;16.45;100.00;101782.38;5130386;27;20047;-57
2022/10/29 09:33:52;;;;;;;26.10;15.25;;;;;;;16.52;100.00;101781.81;5126455;27;20051;-57
2022/10/29 09:36:26;;;;;;;24.25;14.88;;;;;;;16.59;100.00;101778.66;5127796;27;20058;-57
2022/10/29 09:38:59;;;;;;;24.40;15.55;;;;;;;16.63;100.00;101780.97;5127039;27;20771;-57
2022/10/29 09:41:32;;;;;;;27.35;14.30;;;;;;;16.64;100.00;101784.47;5126765;27;20095;-57
2022/10/29 09:44:02;;;;;;;23.65;13.85;;;;;;;16.69;100.00;101777.84;5127175;27;20036;-57
2022/10/29 09:46:39;;;;;;;21.17;13.57;;;;;;;16.75;100.00;101770.38;5126663;27;20051;-57
2022/10/29 09:49:22;;;;;;;23.30;14.00;;;;;;;16.71;100.00;101760.00;5126175;27;20052;-58
2022/10/29 09:51:55;;;;;;;23.30;14.18;;;;;;;16.71;100.00;101756.50;5127026;27;20050;-58
2022/10/29 09:54:27;;;;;;;24.35;13.90;;;;;;;16.75;100.00;101752.63;5125156;27;20047;-58
2022/10/29 09:56:57;;;;;;;20.98;13.77;;;;;;;16.87;100.00;101750.84;5126451;27;20059;-57
2022/10/29 09:59:31;;;;;;;23.92;13.80;;;;;;;16.87;100.00;101756.16;5126521;27;20053;-57
2022/10/29 10:02:01;;;;;;;20.77;13.88;;;;;;;16.96;100.00;101766.09;5126678;27;20047;-57
2022/10/29 10:04:35;;;;;;;28.55;13.13;;;;;;;17.01;100.00;101761.25;5128696;27;20051;-57
2022/10/29 10:07:07;;;;;;;25.98;13.27;;;;;;;16.96;100.00;101758.13;5130055;27;20051;-58
2022/10/29 10:09:51;;;;;;;30.52;13.90;;;;;;;17.01;100.00;101747.97;5129760;27;20051;-58
2022/10/29 10:12:22;;;;;;;23.75;14.68;;;;;;;16.99;100.00;101741.13;5126144;27;20104;-58
2022/10/29 10:15:02;;;;;;;21.08;13.45;;;;;;;16.99;100.00;101730.50;5125700;27;20047;-58
2022/10/29 10:17:53;;;;;;;25.55;13.15;;;;;;;17.11;100.00;101726.00;5127676;28;20047;-58
2022/10/29 10:20:35;;;;;;;25.90;13.48;;;;;;;17.15;100.00;101727.44;5129001;27;20134;-59
2022/10/29 10:23:27;;;;;;;23.15;13.05;;;;;;;17.16;100.00;101732.63;5126824;27;20043;-58
2022/10/29 10:25:56;;;;;;;28.90;13.05;;;;;;;17.25;100.00;101739.06;5113677;27;20413;-59
2022/10/29 10:28:33;;;;;;;24.90;12.85;;;;;;;17.29;100.00;101737.84;5113555;28;20054;-58
2022/10/29 10:31:19;;;;;;;26.90;12.75;;;;;;;17.35;100.00;101731.19;5115658;28;20047;-59
2022/10/29 10:33:54;;;;;;;24.45;13.88;;;;;;;17.31;100.00;101727.06;5111455;28;20089;-55
2022/10/29 10:36:27;;;;;;;22.38;12.90;;;;;;;17.38;100.00;101723.81;5113094;28;20639;-54
2022/10/29 10:38:58;;;;;;;21.98;11.90;;;;;;;17.47;100.00;101732.03;5115408;28;20050;-55
2022/10/29 10:41:30;;;;;;;21.08;11.82;;;;;;;17.76;100.00;101734.13;5115755;28;20048;-55
2022/10/29 10:44:00;;;;;;;21.95;11.70;;;;;;;17.82;100.00;101734.47;5115326;28;20055;-55
2022/10/29 10:46:31;;;;;;;23.15;11.30;;;;;;;18.00;100.00;101736.63;5110981;28;20048;-54
2022/10/29 10:49:04;;;;;;;20.58;11.27;;;;;;;18.45;100.00;101738.19;5112420;28;20036;-55
2022/10/29 10:51:33;;;;;;;22.67;11.45;;;;;;;18.64;100.00;101737.47;5115314;28;20051;-56
2022/10/29 10:54:04;;;;;;;22.83;11.45;;;;;;;18.98;100.00;101726.59;5115248;28;20063;-55
2022/10/29 10:56:33;;;;;;;18.63;11.63;;;;;;;19.19;100.00;101730.06;5114974;28;20077;-55
2022/10/29 10:59:06;;;;;;;21.33;11.57;;;;;;;19.15;100.00;101733.13;5114800;27;20063;-58
2022/10/29 11:01:41;;;;;;;18.98;10.35;;;;;;;19.82;100.00;101720.13;5111464;28;20054;-58
2022/10/29 11:04:17;;;;;;;17.25;10.27;;;;;;;20.15;100.00;101710.84;5113105;28;20543;-59
2022/10/29 11:06:49;;;;;;;17.02;10.23;;;;;;;20.26;100.00;101713.38;5114773;28;20051;-59
2022/10/29 11:09:24;;;;;;;20.58;10.13;;;;;;;21.04;100.00;101712.31;5114812;27;20593;-63
2022/10/29 11:11:58;;;;;;;20.92;9.27;;;;;;;20.76;100.00;101719.47;5112981;27;20036;-59
2022/10/29 11:14:31;;;;;;;20.35;9.43;;;;;;;20.46;100.00;101715.16;5110807;28;20055;-59
2022/10/29 11:17:02;;;;;;;18.60;9.93;;;;;;;20.50;100.00;101708.53;5111015;27;20054;-56
2022/10/29 11:19:38;;;;;;;19.13;8.88;;;;;;;20.67;100.00;101707.78;5110424;28;20207;-56
2022/10/29 11:22:17;;;;;;;16.85;8.85;;;;;;;21.00;100.00;101700.22;5114427;28;20044;-57
2022/10/29 11:24:52;;;;;;;21.50;8.60;;;;;;;20.91;100.00;101690.41;5114101;28;20100;-57
2022/10/29 11:27:33;;;;;;;16.48;8.10;;;;;;;20.91;100.00;101690.41;5114384;28;20055;-57
2022/10/29 11:30:04;;;;;;;20.58;8.38;;;;;;;20.71;100.00;101687.84;5113867;28;20040;-57